createdAt,value
2022-09-13T00:01:10.596Z,1.50
2022-09-13T00:03:38.977Z,1.80
2022-09-13T00:06:13.119Z,2.75
2022-09-13T00:08:42.302Z,2.35
2022-09-13T00:11:18.607Z,1.20
2022-09-13T00:13:47.721Z,1.55
2022-09-13T00:16:17.977Z,2.50
2022-09-13T00:18:46.898Z,1.13
2022-09-13T00:21:17.033Z,1.30
2022-09-13T00:23:46.130Z,1.17
2022-09-13T00:26:18.495Z,1.17
2022-09-13T00:28:51.462Z,1.77
2022-09-13T00:31:20.890Z,1.58
2022-09-13T00:33:49.366Z,2.10
2022-09-13T00:36:18.131Z,1.60
2022-09-13T00:38:46.594Z,2.95
2022-09-13T00:41:18.785Z,1.58
2022-09-13T00:43:50.921Z,1.27
2022-09-13T00:46:32.354Z,2.03
2022-09-13T00:49:09.098Z,2.22
2022-09-13T00:51:37.951Z,1.58
2022-09-13T00:54:06.582Z,1.13
2022-09-13T00:56:40.102Z,1.55
2022-09-13T00:59:11.113Z,1.70
2022-09-13T01:01:45.198Z,3.08
2022-09-13T01:04:13.715Z,1.75
2022-09-13T01:06:43.354Z,1.67
2022-09-13T01:09:13.688Z,2.65
2022-09-13T01:11:49.229Z,2.03
2022-09-13T01:14:19.947Z,3.70
2022-09-13T01:16:48.801Z,2.05
2022-09-13T01:19:17.922Z,4.03
2022-09-13T01:22:22.194Z,1.85
2022-09-13T01:25:28.108Z,3.22
2022-09-13T01:28:39.510Z,3.63
2022-09-13T01:31:13.697Z,2.00
2022-09-13T01:33:59.421Z,2.35
2022-09-13T01:36:52.492Z,3.13
2022-09-13T01:39:30.454Z,2.40
2022-09-13T01:42:11.334Z,2.33
2022-09-13T01:44:51.085Z,2.83
2022-09-13T01:47:28.915Z,2.60
2022-09-13T01:50:08.808Z,3.20
2022-09-13T01:52:44.094Z,2.53
2022-09-13T01:55:19.453Z,2.45
2022-09-13T01:57:53.792Z,1.83
2022-09-13T02:00:22.230Z,1.45
2022-09-13T02:02:56.177Z,2.00
2022-09-13T02:05:32.563Z,2.50
2022-09-13T02:08:04.901Z,2.75
2022-09-13T02:10:38.982Z,2.55
2022-09-13T02:13:13.023Z,1.38
2022-09-13T02:15:45.527Z,1.80
2022-09-13T02:18:20.888Z,2.90
2022-09-13T02:20:52.876Z,2.10
2022-09-13T02:23:26.334Z,1.88
2022-09-13T02:25:56.938Z,2.70
2022-09-13T02:28:31.330Z,2.47
2022-09-13T02:31:01.017Z,3.05
2022-09-13T02:33:36.588Z,1.85
2022-09-13T02:36:08.088Z,1.95
2022-09-13T02:38:45.390Z,2.08
2022-09-13T02:41:19.361Z,2.47
2022-09-13T02:43:53.280Z,2.60
2022-09-13T02:46:40.994Z,1.10
2022-09-13T02:49:16.018Z,4.07
2022-09-13T02:51:53.692Z,2.35
2022-09-13T02:54:30.533Z,2.50
2022-09-13T02:57:05.130Z,2.55
2022-09-13T02:59:34.516Z,2.75
2022-09-13T03:02:07.027Z,2.88
2022-09-13T03:04:37.096Z,2.50
2022-09-13T03:07:11.142Z,2.30
2022-09-13T03:09:43.979Z,2.00
2022-09-13T03:12:30.165Z,1.77
2022-09-13T03:15:11.716Z,1.75
2022-09-13T03:17:50.592Z,2.53
2022-09-13T03:20:26.938Z,2.28
2022-09-13T03:23:17.552Z,2.17
2022-09-13T03:26:09.337Z,1.73
2022-09-13T03:28:47.321Z,2.08
2022-09-13T03:31:21.504Z,1.63
2022-09-13T03:33:59.279Z,2.35
2022-09-13T03:36:35.340Z,2.15
2022-09-13T03:39:15.279Z,3.00
2022-09-13T03:41:48.089Z,2.08
2022-09-13T03:44:21.035Z,3.20
2022-09-13T03:46:51.703Z,2.10
2022-09-13T03:49:24.081Z,2.45
2022-09-13T03:51:55.078Z,2.00
2022-09-13T03:54:26.879Z,2.50
2022-09-13T03:57:09.943Z,3.85
2022-09-13T03:59:40.161Z,3.08
2022-09-13T04:02:12.125Z,2.38
2022-09-13T04:04:41.466Z,3.05
2022-09-13T04:07:13.441Z,2.05
2022-09-13T04:09:41.873Z,1.70
2022-09-13T04:12:11.214Z,2.13
2022-09-13T04:14:39.613Z,2.72
2022-09-13T04:17:08.769Z,2.70
2022-09-13T04:19:37.462Z,2.70
2022-09-13T04:22:06.144Z,2.38
2022-09-13T04:24:36.474Z,3.85
2022-09-13T04:27:05.247Z,2.13
2022-09-13T04:29:33.943Z,2.78
2022-09-13T04:32:03.026Z,2.95
2022-09-13T04:34:31.551Z,2.60
2022-09-13T04:36:59.995Z,2.75
2022-09-13T04:39:28.461Z,3.30
2022-09-13T04:41:58.303Z,2.75
2022-09-13T04:44:27.299Z,2.63
2022-09-13T04:46:55.969Z,2.47
2022-09-13T04:49:26.646Z,2.97
2022-09-13T04:51:55.214Z,2.78
2022-09-13T04:54:23.602Z,3.05
2022-09-13T04:56:51.996Z,2.70
2022-09-13T04:59:21.787Z,2.85
2022-09-13T05:01:50.983Z,3.03
2022-09-13T05:04:19.661Z,1.88
2022-09-13T05:06:48.936Z,2.05
2022-09-13T05:09:17.680Z,2.22
2022-09-13T05:11:46.461Z,1.17
2022-09-13T05:14:15.428Z,1.00
2022-09-13T05:16:45.225Z,1.65
2022-09-13T05:19:14.297Z,0.85
2022-09-13T05:21:42.906Z,1.67
2022-09-13T05:24:11.979Z,1.15
2022-09-13T05:26:40.475Z,1.20
2022-09-13T05:29:08.989Z,0.95
2022-09-13T05:31:39.676Z,0.80
2022-09-13T05:34:11.957Z,1.38
2022-09-13T05:36:40.521Z,1.23
2022-09-13T05:39:31.406Z,1.88
2022-09-13T05:42:01.731Z,2.72
2022-09-13T05:44:30.190Z,1.30
2022-09-13T05:46:58.988Z,1.60
2022-09-13T05:49:28.793Z,1.55
2022-09-13T05:51:57.172Z,1.10
2022-09-13T05:54:25.642Z,0.98
2022-09-13T05:56:57.575Z,1.23
2022-09-13T05:59:26.106Z,1.25
2022-09-13T06:01:54.552Z,1.40
2022-09-13T06:04:22.998Z,0.60
2022-09-13T06:06:55.032Z,1.05
2022-09-13T06:09:23.514Z,1.63
2022-09-13T06:11:51.962Z,1.63
2022-09-13T06:14:20.388Z,1.10
2022-09-13T06:16:48.831Z,1.70
2022-09-13T06:19:17.530Z,2.35
2022-09-13T06:21:45.938Z,2.17
2022-09-13T06:24:16.210Z,1.98
2022-09-13T06:26:44.642Z,1.23
2022-09-13T06:29:13.869Z,1.25
2022-09-13T06:31:45.426Z,2.22
2022-09-13T06:34:16.201Z,1.10
2022-09-13T06:36:45.029Z,0.80
2022-09-13T06:39:15.028Z,0.90
2022-09-13T06:41:43.478Z,1.23
2022-09-13T06:44:11.918Z,0.75
2022-09-13T06:46:40.455Z,1.65
2022-09-13T06:49:09.842Z,1.10
2022-09-13T06:51:38.417Z,1.10
2022-09-13T06:54:07.107Z,1.00
2022-09-13T06:56:38.980Z,1.17
2022-09-13T06:59:09.126Z,1.85
2022-09-13T07:01:39.090Z,1.33
2022-09-13T07:04:09.835Z,1.33
2022-09-13T07:06:40.532Z,1.40
2022-09-13T07:09:11.914Z,1.35
2022-09-13T07:11:43.159Z,1.88
2022-09-13T07:14:15.528Z,0.98
2022-09-13T07:16:44.034Z,1.63
2022-09-13T07:19:15.999Z,1.40
2022-09-13T07:21:44.512Z,1.67
2022-09-13T07:24:13.694Z,1.05
2022-09-13T07:26:43.799Z,0.90
2022-09-13T07:29:14.971Z,1.10
2022-09-13T07:31:45.686Z,0.50
2022-09-13T07:34:15.822Z,1.02
2022-09-13T07:36:44.973Z,1.00
2022-09-13T07:39:16.415Z,0.38
2022-09-13T07:41:48.382Z,1.02
2022-09-13T07:44:16.812Z,0.40
2022-09-13T07:46:45.364Z,1.08
2022-09-13T07:49:15.632Z,0.30
2022-09-13T07:51:45.203Z,1.60
2022-09-13T07:54:15.540Z,0.40
2022-09-13T07:56:44.075Z,0.55
2022-09-13T07:59:16.103Z,0.68
2022-09-13T08:01:45.972Z,0.52
2022-09-13T08:04:17.458Z,0.73
2022-09-13T08:06:46.563Z,0.45
2022-09-13T08:09:15.935Z,1.00
2022-09-13T08:11:46.000Z,1.02
2022-09-13T08:14:17.859Z,0.50
2022-09-13T08:16:46.750Z,0.63
2022-09-13T08:19:16.670Z,0.38
2022-09-13T08:21:45.941Z,0.65
2022-09-13T08:24:16.120Z,0.43
2022-09-13T08:26:46.548Z,1.05
2022-09-13T08:29:17.487Z,0.60
2022-09-13T08:31:46.079Z,0.75
2022-09-13T08:34:16.044Z,1.75
2022-09-13T08:36:46.106Z,0.63
2022-09-13T08:39:14.908Z,0.80
2022-09-13T08:42:05.023Z,0.40
2022-09-13T08:44:37.571Z,2.47
2022-09-13T08:47:24.778Z,0.93
2022-09-13T08:49:55.807Z,1.15
2022-09-13T08:52:30.791Z,1.70
2022-09-13T08:55:00.145Z,0.82
2022-09-13T08:57:33.601Z,1.13
2022-09-13T09:00:17.773Z,0.90
2022-09-13T09:02:59.629Z,0.80
2022-09-13T09:05:30.323Z,0.85
2022-09-13T09:08:03.185Z,1.10
2022-09-13T09:10:35.399Z,0.50
2022-09-13T09:13:09.160Z,1.17
2022-09-13T09:15:43.473Z,0.55
2022-09-13T09:18:18.692Z,0.98
2022-09-13T09:20:49.099Z,0.22
2022-09-13T09:23:21.786Z,0.85
2022-09-13T09:25:53.695Z,0.60
2022-09-13T09:28:22.190Z,0.40
2022-09-13T09:31:02.052Z,0.60
2022-09-13T09:33:58.759Z,0.70
2022-09-13T09:36:38.368Z,0.50
2022-09-13T09:39:08.235Z,0.65
2022-09-13T09:41:38.558Z,0.80
2022-09-13T09:44:17.828Z,0.73
2022-09-13T09:46:52.098Z,0.63
2022-09-13T09:49:45.723Z,1.00
2022-09-13T09:52:18.183Z,0.50
2022-09-13T09:54:47.203Z,0.32
2022-09-13T09:57:15.788Z,0.82
2022-09-13T09:59:44.177Z,0.70
2022-09-13T10:02:18.468Z,0.57
2022-09-13T10:04:57.397Z,0.77
2022-09-13T10:07:31.119Z,0.82
2022-09-13T10:10:03.431Z,0.85
2022-09-13T10:12:35.365Z,0.50
2022-09-13T10:15:17.200Z,1.00
2022-09-13T10:18:03.370Z,0.60
2022-09-13T10:20:32.914Z,0.88
2022-09-13T10:23:20.641Z,0.80
2022-09-13T10:26:10.187Z,0.50
2022-09-13T10:28:49.155Z,0.47
2022-09-13T10:31:20.915Z,0.40
2022-09-13T10:34:00.532Z,0.93
2022-09-13T10:39:24.177Z,0.40
2022-09-13T10:41:55.764Z,0.20
2022-09-13T10:44:32.873Z,0.50
2022-09-13T10:47:05.723Z,0.57
2022-09-13T10:49:47.089Z,0.35
2022-09-13T10:52:34.166Z,0.60
2022-09-13T10:55:27.422Z,0.25
2022-09-13T10:58:13.648Z,0.90
2022-09-13T11:00:59.750Z,0.45
2022-09-13T11:03:41.188Z,0.45
2022-09-13T11:06:18.842Z,0.22
2022-09-13T11:08:57.525Z,0.90
2022-09-13T11:11:32.629Z,0.40
2022-09-13T11:14:12.443Z,0.20
2022-09-13T11:16:53.087Z,0.65
2022-09-13T11:20:00.627Z,0.40
2022-09-13T11:22:47.444Z,0.40
2022-09-13T11:25:30.055Z,0.65
2022-09-13T11:28:08.700Z,1.13
2022-09-13T11:30:43.972Z,0.85
2022-09-13T11:33:29.374Z,0.95
2022-09-13T11:36:17.047Z,0.35
2022-09-13T11:38:59.783Z,0.43
2022-09-13T11:41:39.770Z,0.70
2022-09-13T11:44:29.901Z,0.55
2022-09-13T11:47:09.119Z,0.63
2022-09-13T11:50:02.608Z,0.70
2022-09-13T11:52:47.115Z,0.28
2022-09-13T11:55:32.147Z,1.13
2022-09-13T11:58:05.273Z,0.22
2022-09-13T12:00:40.737Z,0.80
2022-09-13T12:03:19.008Z,0.40
2022-09-13T12:05:53.189Z,0.68
2022-09-13T12:08:28.229Z,0.82
2022-09-13T12:11:00.609Z,1.52
2022-09-13T12:13:32.627Z,0.63
2022-09-13T12:16:06.373Z,0.82
2022-09-13T12:18:39.767Z,0.63
2022-09-13T12:21:11.600Z,0.73
2022-09-13T12:23:49.437Z,0.52
2022-09-13T12:26:22.795Z,0.45
2022-09-13T12:28:56.605Z,0.40
2022-09-13T12:31:28.488Z,0.38
2022-09-13T12:33:58.199Z,0.55
2022-09-13T12:36:44.517Z,0.25
2022-09-13T12:39:32.464Z,0.28
2022-09-13T12:42:38.367Z,0.40
2022-09-13T12:45:23.393Z,0.57
2022-09-13T12:48:19.791Z,0.60
2022-09-13T12:51:04.336Z,0.40
2022-09-13T12:53:50.701Z,0.40
2022-09-13T12:56:34.322Z,0.10
2022-09-13T12:59:26.511Z,1.02
2022-09-13T13:01:55.715Z,0.52
2022-09-13T13:04:28.378Z,0.30
2022-09-13T13:07:00.533Z,0.30
2022-09-13T13:09:41.209Z,0.45
2022-09-13T13:12:12.472Z,0.50
2022-09-13T13:14:53.434Z,0.20
2022-09-13T13:17:40.147Z,1.00
2022-09-13T13:20:41.099Z,0.65
2022-09-13T13:23:24.677Z,0.40
2022-09-13T13:26:07.825Z,0.65
2022-09-13T13:29:14.320Z,0.10
2022-09-13T13:32:04.538Z,0.20
2022-09-13T13:34:41.158Z,0.40
2022-09-13T13:37:36.890Z,0.52
2022-09-13T13:40:27.247Z,0.75
2022-09-13T13:43:32.609Z,0.40
2022-09-13T13:46:30.477Z,0.20
2022-09-13T13:49:33.946Z,0.35
2022-09-13T13:52:40.924Z,0.40
2022-09-13T13:55:41.361Z,1.33
2022-09-13T13:58:46.510Z,0.57
2022-09-13T14:01:20.504Z,0.13
2022-09-13T14:04:22.899Z,0.05
2022-09-13T14:07:09.466Z,0.30
2022-09-13T14:09:55.732Z,0.65
2022-09-13T14:12:40.598Z,0.43
2022-09-13T14:15:34.814Z,0.35
2022-09-13T14:18:46.269Z,0.35
2022-09-13T14:21:25.130Z,0.25
2022-09-13T14:24:19.077Z,0.50
2022-09-13T14:26:51.339Z,1.20
2022-09-13T14:29:23.433Z,1.00
2022-09-13T14:31:55.110Z,0.50
2022-09-13T14:34:25.848Z,0.32
2022-09-13T14:36:56.765Z,1.17
2022-09-13T14:39:26.114Z,0.38
2022-09-13T14:42:18.057Z,0.50
2022-09-13T14:44:49.147Z,0.40
2022-09-13T14:47:22.764Z,0.28
2022-09-13T14:49:56.104Z,0.63
2022-09-13T14:52:31.805Z,0.75
2022-09-13T14:55:04.898Z,0.90
2022-09-13T14:57:40.245Z,0.38
2022-09-13T15:00:22.990Z,0.73
2022-09-13T15:02:53.865Z,0.55
2022-09-13T15:05:25.492Z,0.70
2022-09-13T15:07:55.778Z,0.55
2022-09-13T15:10:28.361Z,0.57
2022-09-13T15:13:11.194Z,0.88
2022-09-13T15:15:40.638Z,0.45
2022-09-13T15:18:26.177Z,0.40
2022-09-13T15:20:56.931Z,0.30
2022-09-13T15:23:29.554Z,0.85
2022-09-13T15:26:03.895Z,0.50
2022-09-13T15:28:46.837Z,0.55
2022-09-13T15:31:22.962Z,0.63
2022-09-13T15:34:15.044Z,0.88
2022-09-13T15:36:44.725Z,0.85
2022-09-13T15:39:18.180Z,0.52
2022-09-13T15:41:54.580Z,0.65
2022-09-13T15:44:25.894Z,0.88
2022-09-13T15:46:55.961Z,0.47
2022-09-13T15:49:27.806Z,0.20
2022-09-13T15:52:00.318Z,0.20
2022-09-13T15:54:35.048Z,0.57
2022-09-13T15:57:09.782Z,0.85
2022-09-13T15:59:39.901Z,0.98
2022-09-13T16:02:20.739Z,0.68
2022-09-13T16:04:49.930Z,0.20
2022-09-13T16:07:19.034Z,0.50
2022-09-13T16:09:48.738Z,0.68
2022-09-13T16:12:19.029Z,0.88
2022-09-13T16:14:51.680Z,0.30
2022-09-13T16:17:30.383Z,0.50
2022-09-13T16:20:00.219Z,0.57
2022-09-13T16:22:28.926Z,0.70
2022-09-13T16:24:57.651Z,0.25
2022-09-13T16:27:30.713Z,0.43
2022-09-13T16:30:05.754Z,0.63
2022-09-13T16:32:34.521Z,1.20
2022-09-13T16:35:04.095Z,0.40
2022-09-13T16:37:32.939Z,1.42
2022-09-13T16:40:02.576Z,0.47
2022-09-13T16:42:33.414Z,0.60
2022-09-13T16:45:02.603Z,1.00
2022-09-13T16:47:33.458Z,0.60
2022-09-13T16:50:02.322Z,0.57
2022-09-13T16:52:31.685Z,0.90
2022-09-13T16:55:00.698Z,0.45
2022-09-13T16:57:30.078Z,0.38
2022-09-13T16:59:59.138Z,0.93
2022-09-13T17:02:28.905Z,1.33
2022-09-13T17:04:59.058Z,0.98
2022-09-13T17:07:27.847Z,1.00
2022-09-13T17:09:57.671Z,0.60
2022-09-13T17:12:27.474Z,0.95
2022-09-13T17:14:58.024Z,1.23
2022-09-13T17:17:27.939Z,0.70
2022-09-13T17:19:59.245Z,0.73
2022-09-13T17:22:32.311Z,0.63
2022-09-13T17:25:01.736Z,0.52
2022-09-13T17:27:37.420Z,0.60
2022-09-13T17:30:08.194Z,0.77
2022-09-13T17:32:38.080Z,0.63
2022-09-13T17:35:11.275Z,1.08
2022-09-13T17:37:39.991Z,0.60
2022-09-13T17:40:09.765Z,0.82
2022-09-13T17:42:39.582Z,0.70
2022-09-13T17:45:09.846Z,2.83
2022-09-13T17:47:38.995Z,1.00
2022-09-13T17:50:10.641Z,0.65
2022-09-13T17:52:41.467Z,1.05
2022-09-13T17:55:13.525Z,0.50
2022-09-13T17:57:42.781Z,0.60
2022-09-13T18:00:13.746Z,1.55
2022-09-13T18:02:47.154Z,1.20
2022-09-13T18:05:21.188Z,0.65
2022-09-13T18:07:51.937Z,0.80
2022-09-13T18:10:48.819Z,1.33
2022-09-13T18:13:13.884Z,1.80
2022-09-13T18:15:42.683Z,0.68
2022-09-13T18:18:11.324Z,0.75
2022-09-13T18:20:48.044Z,0.98
2022-09-13T18:23:17.764Z,0.95
2022-09-13T18:26:01.693Z,0.50
2022-09-13T18:28:32.015Z,1.15
2022-09-13T18:31:03.603Z,1.30
2022-09-13T18:33:38.361Z,1.90
2022-09-13T18:36:12.920Z,1.10
2022-09-13T18:38:46.902Z,1.15
2022-09-13T18:41:18.310Z,0.80
2022-09-13T18:43:56.638Z,1.08
2022-09-13T18:46:30.554Z,0.95
2022-09-13T18:49:01.672Z,1.85
2022-09-13T18:51:36.675Z,0.88
2022-09-13T18:54:09.925Z,1.98
2022-09-13T18:56:39.845Z,1.05
2022-09-13T18:59:12.136Z,0.63
2022-09-13T19:01:44.838Z,1.23
2022-09-13T19:04:17.441Z,1.15
2022-09-13T19:06:52.617Z,0.50
2022-09-13T19:09:24.526Z,1.52
2022-09-13T19:11:58.602Z,1.58
2022-09-13T19:14:34.007Z,0.73
2022-09-13T19:17:04.893Z,0.93
2022-09-13T19:19:43.630Z,0.85
2022-09-13T19:22:16.503Z,1.20
2022-09-13T19:24:51.937Z,1.33
2022-09-13T19:27:23.517Z,1.33
2022-09-13T19:29:55.320Z,1.27
2022-09-13T19:32:26.652Z,0.88
2022-09-13T19:34:57.573Z,0.68
2022-09-13T19:37:29.860Z,0.65
2022-09-13T19:40:06.141Z,1.73
2022-09-13T19:42:38.150Z,1.27
2022-09-13T19:45:09.390Z,0.85
2022-09-13T19:48:25.768Z,0.30
2022-09-13T19:50:38.753Z,1.25
2022-09-13T19:53:10.615Z,1.20
2022-09-13T19:55:47.081Z,1.13
2022-09-13T19:58:18.639Z,0.75
2022-09-13T20:00:47.936Z,1.15
2022-09-13T20:03:21.708Z,1.38
2022-09-13T20:05:51.712Z,0.73
2022-09-13T20:08:26.145Z,0.80
2022-09-13T20:10:56.134Z,1.63
2022-09-13T20:13:27.331Z,0.73
2022-09-13T20:15:58.282Z,0.60
2022-09-13T20:18:35.334Z,2.30
2022-09-13T20:21:06.286Z,1.40
2022-09-13T20:23:44.636Z,1.15
2022-09-13T20:26:18.916Z,0.73
2022-09-13T20:28:50.680Z,1.50
2022-09-13T20:31:21.658Z,0.47
2022-09-13T20:33:56.050Z,0.55
2022-09-13T20:36:27.926Z,0.70
2022-09-13T20:39:03.452Z,1.38
2022-09-13T20:41:34.988Z,1.55
2022-09-13T20:44:06.045Z,0.88
2022-09-13T20:46:38.340Z,0.60
2022-09-13T20:49:09.413Z,1.38
2022-09-13T20:51:39.866Z,0.75
2022-09-13T20:54:12.067Z,0.60
2022-09-13T20:56:40.642Z,0.70
2022-09-13T20:59:10.439Z,0.75
2022-09-13T21:01:40.874Z,0.95
2022-09-13T21:04:12.466Z,0.95
2022-09-13T21:07:03.710Z,1.08
2022-09-13T21:09:32.756Z,1.00
2022-09-13T21:12:03.172Z,0.50
2022-09-13T21:14:32.410Z,1.05
2022-09-13T21:17:02.007Z,0.80
2022-09-13T21:19:30.665Z,1.08
2022-09-13T21:22:00.268Z,0.75
2022-09-13T21:24:29.518Z,0.90
2022-09-13T21:27:07.777Z,1.52
2022-09-13T21:29:39.142Z,0.77
2022-09-13T21:32:09.152Z,1.42
2022-09-13T21:34:38.996Z,0.60
2022-09-13T21:37:07.509Z,1.35
2022-09-13T21:39:42.099Z,1.42
2022-09-13T21:42:12.458Z,1.33
2022-09-13T21:44:40.884Z,0.98
2022-09-13T21:47:12.191Z,1.25
2022-09-13T21:49:43.251Z,0.80
2022-09-13T21:52:13.908Z,0.90
2022-09-13T21:54:42.394Z,1.67
2022-09-13T21:57:13.106Z,1.30
2022-09-13T21:59:43.775Z,1.23
2022-09-13T22:02:14.667Z,1.75
2022-09-13T22:04:43.670Z,1.38
2022-09-13T22:07:14.029Z,1.10
2022-09-13T22:09:43.454Z,1.70
2022-09-13T22:12:13.862Z,0.77
2022-09-13T22:14:42.494Z,1.88
2022-09-13T22:17:11.368Z,0.73
2022-09-13T22:19:40.942Z,1.60
2022-09-13T22:22:12.493Z,1.55
2022-09-13T22:24:41.044Z,2.20
2022-09-13T22:27:09.766Z,1.40
2022-09-13T22:29:42.002Z,1.88
2022-09-13T22:32:10.830Z,1.15
2022-09-13T22:34:40.945Z,0.85
2022-09-13T22:37:11.094Z,1.50
2022-09-13T22:39:39.974Z,1.70
2022-09-13T22:42:09.168Z,0.75
2022-09-13T22:44:38.016Z,1.70
2022-09-13T22:47:08.142Z,0.95
2022-09-13T22:49:38.124Z,1.23
2022-09-13T22:52:11.065Z,1.40
2022-09-13T22:54:39.855Z,0.77
2022-09-13T22:57:08.335Z,1.98
2022-09-13T22:59:37.336Z,1.17
2022-09-13T23:02:08.009Z,1.05
2022-09-13T23:04:38.123Z,1.45
2022-09-13T23:07:06.705Z,1.15
2022-09-13T23:09:35.679Z,1.23
2022-09-13T23:12:04.999Z,1.38
2022-09-13T23:14:34.528Z,0.90
2022-09-13T23:17:03.350Z,1.42
2022-09-13T23:19:33.173Z,2.03
2022-09-13T23:22:04.614Z,1.55
2022-09-13T23:24:33.437Z,1.08
2022-09-13T23:27:03.666Z,1.27
2022-09-13T23:29:33.483Z,0.90
2022-09-13T23:32:04.313Z,1.00
2022-09-13T23:34:36.309Z,1.48
2022-09-13T23:37:05.202Z,1.25
2022-09-13T23:39:33.685Z,0.70
2022-09-13T23:42:06.484Z,2.30
2022-09-13T23:44:39.558Z,1.05
2022-09-13T23:47:08.352Z,0.95
2022-09-13T23:49:40.093Z,1.60
2022-09-13T23:52:09.137Z,2.63
2022-09-13T23:54:38.909Z,1.23
2022-09-13T23:57:07.741Z,1.15
2022-09-13T23:59:36.295Z,1.63
